Time;durP1;ratioP1;P1;durP2;ratioP2;P2;SDS_P1;SDS_P2;PMS_P1;PMS_P2;Temp;Humidity;BMP_temperature;BMP_pressure;BME280_temperature;BME280_humidity;BME280_pressure;Samples;Min_cycle;Max_cycle;Signal;HPM_P1;HPM_P2
2022/01/06 00:00:23;;;;;;;;;;;1.80;99.90;;;;;;5075998;28;19919;-47
2022/01/06 00:02:48;;;;;;;;;;;1.70;99.90;;;;;;5094646;28;19913;-45
2022/01/06 00:05:14;;;;;;;;;;;1.70;99.90;;;;;;5075779;28;19908;-48
2022/01/06 00:07:39;;;;;;;;;;;1.80;99.90;;;;;;5093409;28;19908;-46
2022/01/06 00:10:07;;;;;;;;;;;1.80;99.90;;;;;;5075928;28;19908;-45
2022/01/06 00:12:42;;;;;;;;;;;1.70;99.90;;;;;;5094137;28;20318;-44
2022/01/06 00:15:36;;;;;;;;;;;1.80;99.90;;;;;;5094137;28;20000;-48
2022/01/06 00:25:57;;;;;;;;;;;1.90;99.90;;;;;;5093903;28;19950;-45
2022/01/06 00:28:22;;;;;;;;;;;1.80;99.90;;;;;;5094020;28;19915;-46
2022/01/06 00:30:48;;;;;;;;;;;1.80;99.90;;;;;;5093683;28;19920;-48
2022/01/06 00:33:14;;;;;;;;;;;1.80;99.90;;;;;;5093595;28;19998;-46
2022/01/06 00:35:40;;;;;;;;;;;1.70;99.90;;;;;;5093508;28;19916;-48
2022/01/06 00:38:07;;;;;;;;;;;1.70;99.90;;;;;;5093835;28;19916;-47
2022/01/06 00:40:33;;;;;;;;;;;1.70;99.90;;;;;;5093491;28;19912;-51
2022/01/06 00:42:58;;;;;;;;;;;1.70;99.90;;;;;;5093525;28;19912;-47
2022/01/06 00:45:24;;;;;;;;;;;1.70;99.90;;;;;;5093700;28;19930;-46
2022/01/06 00:47:49;;;;;;;;;;;1.80;99.90;;;;;;5093410;28;19962;-47
2022/01/06 00:50:15;;;;;;;;;;;1.60;99.90;;;;;;5075249;28;19908;-44
2022/01/06 00:52:40;;;;;;;;;;;1.60;99.90;;;;;;5093952;28;19934;-45
2022/01/06 00:55:06;;;;;;;;;;;1.60;99.90;;;;;;5093478;28;19908;-47
2022/01/06 00:57:31;;;;;;;;;;;1.50;99.90;;;;;;5093796;28;20295;-45
2022/01/06 00:59:57;;;;;;;;;;;1.50;99.90;;;;;;5093274;28;20028;-46
2022/01/06 01:02:23;;;;;;;;;;;1.50;99.90;;;;;;5093717;28;19916;-46
2022/01/06 01:04:48;;;;;;;;;;;1.40;99.90;;;;;;5094064;28;19909;-49
2022/01/06 01:07:14;;;;;;;;;;;1.40;99.90;;;;;;5093632;28;20248;-46
2022/01/06 01:09:39;;;;;;;;;;;1.30;99.90;;;;;;5093308;28;20346;-46
2022/01/06 01:12:06;;;;;;;;;;;1.40;99.90;;;;;;5093653;28;19908;-46
2022/01/06 01:14:32;;;;;;;;;;;1.30;99.90;;;;;;5093599;28;19908;-46
2022/01/06 01:17:01;;;;;;;;;;;1.50;99.90;;;;;;5093612;28;19930;-45
2022/01/06 01:19:28;;;;;;;;;;;1.40;99.90;;;;;;5077147;28;19956;-45
2022/01/06 01:21:53;;;;;;;;;;;1.40;99.90;;;;;;5097102;28;19916;-48
2022/01/06 01:24:19;;;;;;;;;;;1.50;99.90;;;;;;5096844;28;19914;-45
2022/01/06 01:26:45;;;;;;;;;;;1.60;99.90;;;;;;5097279;28;19916;-48
2022/01/06 01:29:16;;;;;;;;;;;1.60;99.90;;;;;;5097133;28;19960;-47
2022/01/06 01:31:46;;;;;;;;;;;1.60;99.90;;;;;;5097577;28;19924;-49
2022/01/06 01:34:12;;;;;;;;;;;1.60;99.90;;;;;;5096786;28;20041;-47
2022/01/06 01:36:39;;;;;;;;;;;1.70;99.90;;;;;;5096570;28;20411;-45
2022/01/06 01:39:04;;;;;;;;;;;1.60;99.90;;;;;;5096858;28;19912;-45
2022/01/06 01:41:30;;;;;;;;;;;1.80;99.90;;;;;;5079148;28;19919;-45
2022/01/06 01:43:56;;;;;;;;;;;1.80;99.90;;;;;;5096926;28;19908;-45
2022/01/06 01:46:28;;;;;;;;;;;1.70;99.90;;;;;;5096831;28;19973;-52
2022/01/06 01:51:38;;;;;;;;;;;1.60;99.90;;;;;;5096852;28;19908;-45
2022/01/06 01:54:03;;;;;;;;;;;1.70;99.90;;;;;;5096652;28;19912;-46
2022/01/06 01:56:29;;;;;;;;;;;1.70;99.90;;;;;;5096316;28;20273;-45
2022/01/06 01:58:55;;;;;;;;;;;1.70;99.90;;;;;;5096215;28;19919;-45
2022/01/06 02:01:21;;;;;;;;;;;1.80;99.90;;;;;;5078041;28;19912;-47
2022/01/06 02:03:46;;;;;;;;;;;1.80;99.90;;;;;;5096467;28;19914;-50
2022/01/06 02:06:12;;;;;;;;;;;1.80;99.90;;;;;;5096444;28;19908;-45
2022/01/06 02:08:37;;;;;;;;;;;1.70;99.90;;;;;;5096627;28;19908;-45
2022/01/06 02:11:03;;;;;;;;;;;1.60;99.90;;;;;;5096032;28;20230;-45
2022/01/06 02:13:29;;;;;;;;;;;1.70;99.90;;;;;;5096163;28;19915;-48
2022/01/06 02:15:56;;;;;;;;;;;1.70;99.90;;;;;;5095948;28;19908;-47
2022/01/06 02:18:21;;;;;;;;;;;1.70;99.90;;;;;;5096206;28;19908;-48
2022/01/06 02:20:47;;;;;;;;;;;1.80;99.90;;;;;;5095620;28;20381;-50
2022/01/06 02:23:12;;;;;;;;;;;1.70;99.90;;;;;;5096164;28;20469;-46
2022/01/06 02:25:38;;;;;;;;;;;1.70;99.90;;;;;;5095727;28;19954;-46
2022/01/06 02:28:04;;;;;;;;;;;1.60;99.90;;;;;;5096052;28;19912;-48
2022/01/06 02:30:34;;;;;;;;;;;1.70;99.90;;;;;;5094999;28;19928;-47
2022/01/06 02:33:01;;;;;;;;;;;1.80;99.90;;;;;;5095572;28;19909;-45
2022/01/06 02:35:27;;;;;;;;;;;1.80;99.90;;;;;;5095473;28;19914;-45
2022/01/06 02:37:53;;;;;;;;;;;1.80;99.90;;;;;;5077691;28;20245;-46
2022/01/06 02:40:19;;;;;;;;;;;1.90;99.90;;;;;;5095667;28;19912;-47
2022/01/06 02:42:48;;;;;;;;;;;1.90;99.90;;;;;;5095782;28;19912;-47
2022/01/06 02:45:14;;;;;;;;;;;1.90;99.90;;;;;;5095658;28;19912;-48
2022/01/06 02:47:40;;;;;;;;;;;1.80;99.90;;;;;;5095198;28;19908;-47
2022/01/06 02:50:06;;;;;;;;;;;1.70;99.90;;;;;;5095565;28;19955;-48
2022/01/06 02:52:32;;;;;;;;;;;1.80;99.90;;;;;;5077334;28;19915;-48
2022/01/06 02:54:57;;;;;;;;;;;1.70;99.90;;;;;;5095141;28;19908;-49
2022/01/06 02:57:23;;;;;;;;;;;1.80;99.90;;;;;;5095455;28;19981;-48
2022/01/06 02:59:48;;;;;;;;;;;1.70;99.90;;;;;;5095001;28;19920;-50
2022/01/06 03:02:14;;;;;;;;;;;1.70;99.90;;;;;;5094844;28;19916;-48
2022/01/06 03:04:39;;;;;;;;;;;1.80;99.90;;;;;;5082895;28;19912;-48
2022/01/06 03:07:07;;;;;;;;;;;1.70;99.90;;;;;;5075628;28;19908;-46
2022/01/06 03:09:41;;;;;;;;;;;1.60;99.90;;;;;;5092460;28;20393;-47
2022/01/06 03:12:11;;;;;;;;;;;1.50;99.90;;;;;;5089959;28;19908;-48
2022/01/06 03:14:37;;;;;;;;;;;1.60;99.90;;;;;;5093397;28;19991;-48
2022/01/06 03:17:03;;;;;;;;;;;1.60;99.90;;;;;;5075189;28;19916;-45
2022/01/06 03:19:29;;;;;;;;;;;1.80;99.90;;;;;;5089278;28;19982;-48
2022/01/06 03:21:54;;;;;;;;;;;1.80;99.90;;;;;;5090812;28;19916;-46
2022/01/06 03:24:20;;;;;;;;;;;1.90;99.90;;;;;;5089831;28;19920;-45
2022/01/06 03:26:45;;;;;;;;;;;1.90;99.90;;;;;;5093426;28;20349;-48
2022/01/06 03:29:11;;;;;;;;;;;1.90;99.90;;;;;;5093330;28;19958;-46
2022/01/06 03:31:36;;;;;;;;;;;1.90;99.90;;;;;;5090173;28;20072;-47
2022/01/06 03:34:02;;;;;;;;;;;1.80;99.90;;;;;;5091604;28;19918;-48
2022/01/06 03:36:27;;;;;;;;;;;1.70;99.90;;;;;;5093655;28;19908;-46
2022/01/06 03:38:53;;;;;;;;;;;1.80;99.90;;;;;;5093030;28;19912;-47
2022/01/06 03:41:18;;;;;;;;;;;1.80;99.90;;;;;;5089773;28;20003;-48
2022/01/06 03:43:44;;;;;;;;;;;1.80;99.90;;;;;;5092361;28;19908;-48
2022/01/06 03:46:09;;;;;;;;;;;1.90;99.90;;;;;;5092777;28;20025;-46
2022/01/06 03:48:35;;;;;;;;;;;1.80;99.90;;;;;;5075004;28;19995;-47
2022/01/06 03:51:00;;;;;;;;;;;1.80;99.90;;;;;;5089834;28;20023;-45
2022/01/06 03:53:26;;;;;;;;;;;1.80;99.90;;;;;;5093029;28;19908;-50
2022/01/06 03:55:51;;;;;;;;;;;1.90;99.90;;;;;;5092149;28;19957;-49
2022/01/06 03:58:17;;;;;;;;;;;1.80;99.90;;;;;;5093161;28;20312;-48
2022/01/06 04:00:42;;;;;;;;;;;1.70;99.90;;;;;;5094173;28;19912;-46
2022/01/06 04:03:08;;;;;;;;;;;1.70;99.90;;;;;;5093356;28;19965;-49
2022/01/06 04:05:34;;;;;;;;;;;1.70;99.90;;;;;;5092964;28;19915;-46
2022/01/06 04:08:00;;;;;;;;;;;1.70;99.90;;;;;;5091853;28;19904;-47
2022/01/06 04:10:25;;;;;;;;;;;1.70;99.90;;;;;;5088263;28;19991;-46
2022/01/06 04:12:51;;;;;;;;;;;1.80;99.90;;;;;;5092709;28;19950;-49
2022/01/06 04:15:16;;;;;;;;;;;1.70;99.90;;;;;;5090856;28;19908;-50
2022/01/06 04:17:42;;;;;;;;;;;1.70;99.90;;;;;;5090462;28;20022;-47
2022/01/06 04:20:08;;;;;;;;;;;1.70;99.90;;;;;;5090837;28;19942;-47
2022/01/06 04:22:34;;;;;;;;;;;1.80;99.90;;;;;;5074241;28;19923;-46
2022/01/06 04:25:00;;;;;;;;;;;1.80;99.90;;;;;;5090611;28;19908;-46
2022/01/06 04:27:26;;;;;;;;;;;1.80;99.90;;;;;;5092118;28;20451;-47
2022/01/06 04:29:51;;;;;;;;;;;1.80;99.90;;;;;;5088951;28;20290;-46
2022/01/06 04:32:17;;;;;;;;;;;1.80;99.90;;;;;;5089481;28;19919;-46
2022/01/06 04:34:42;;;;;;;;;;;1.70;99.90;;;;;;5090746;28;19923;-46
2022/01/06 04:37:08;;;;;;;;;;;1.70;99.90;;;;;;5090268;28;19961;-46
2022/01/06 04:39:33;;;;;;;;;;;1.70;99.90;;;;;;5092453;28;19912;-46
2022/01/06 04:41:59;;;;;;;;;;;1.60;99.90;;;;;;5088034;28;19978;-49
2022/01/06 04:44:24;;;;;;;;;;;1.50;99.90;;;;;;5090928;28;19911;-47
2022/01/06 04:46:50;;;;;;;;;;;1.50;99.90;;;;;;5092373;28;19909;-50
2022/01/06 04:49:16;;;;;;;;;;;1.60;99.90;;;;;;5093680;28;19934;-47
2022/01/06 04:51:41;;;;;;;;;;;1.50;99.90;;;;;;5090445;28;19916;-47
2022/01/06 04:54:07;;;;;;;;;;;1.60;99.90;;;;;;5093622;28;19908;-49
2022/01/06 04:56:36;;;;;;;;;;;1.50;99.90;;;;;;5094285;28;19995;-49
2022/01/06 04:59:03;;;;;;;;;;;1.50;99.90;;;;;;5093909;28;19916;-48
2022/01/06 05:01:28;;;;;;;;;;;1.60;99.90;;;;;;5095860;28;20278;-48
2022/01/06 05:03:54;;;;;;;;;;;1.50;99.90;;;;;;5095841;28;19916;-48
2022/01/06 05:06:19;;;;;;;;;;;1.60;99.90;;;;;;5094065;28;19912;-49
2022/01/06 05:08:45;;;;;;;;;;;1.50;99.90;;;;;;5074189;28;19916;-52
2022/01/06 05:11:10;;;;;;;;;;;1.60;99.90;;;;;;5094340;28;19908;-48
2022/01/06 05:13:36;;;;;;;;;;;1.60;99.90;;;;;;5095968;28;20014;-48
2022/01/06 05:16:01;;;;;;;;;;;1.60;99.90;;;;;;5095667;28;19912;-46
2022/01/06 05:18:27;;;;;;;;;;;1.70;99.90;;;;;;5077902;28;19909;-46
2022/01/06 05:20:52;;;;;;;;;;;1.60;99.90;;;;;;5095844;28;20027;-49
2022/01/06 05:23:19;;;;;;;;;;;1.60;99.90;;;;;;5077727;28;19915;-48
2022/01/06 05:25:45;;;;;;;;;;;1.50;99.90;;;;;;5095455;28;19914;-45
2022/01/06 05:28:10;;;;;;;;;;;1.40;99.90;;;;;;5095212;28;20269;-47
2022/01/06 05:30:36;;;;;;;;;;;1.50;99.90;;;;;;5094566;28;19924;-48
2022/01/06 05:33:01;;;;;;;;;;;1.50;99.90;;;;;;5095052;28;19962;-46
2022/01/06 05:35:27;;;;;;;;;;;1.40;99.90;;;;;;5094321;28;19944;-49
2022/01/06 05:37:52;;;;;;;;;;;1.40;99.90;;;;;;5094372;28;19944;-46
2022/01/06 05:40:18;;;;;;;;;;;1.50;99.90;;;;;;5076045;28;19912;-47
2022/01/06 05:42:43;;;;;;;;;;;1.60;99.90;;;;;;5094263;28;19923;-48
2022/01/06 05:45:12;;;;;;;;;;;1.50;99.90;;;;;;5095757;28;19915;-47
2022/01/06 05:47:37;;;;;;;;;;;1.50;99.90;;;;;;5096569;28;19915;-46
2022/01/06 05:50:04;;;;;;;;;;;1.60;99.90;;;;;;5096571;28;19912;-45
2022/01/06 05:52:29;;;;;;;;;;;1.70;99.90;;;;;;5096031;28;19908;-49
2022/01/06 05:54:55;;;;;;;;;;;1.70;99.90;;;;;;5096522;28;19976;-50
2022/01/06 05:57:20;;;;;;;;;;;1.60;99.90;;;;;;5096921;28;19908;-48
2022/01/06 05:59:46;;;;;;;;;;;1.50;99.90;;;;;;5078344;28;19912;-47
2022/01/06 06:02:11;;;;;;;;;;;1.60;99.90;;;;;;5096494;28;20287;-45
2022/01/06 06:04:37;;;;;;;;;;;1.60;99.90;;;;;;5096151;28;20346;-46
2022/01/06 06:07:02;;;;;;;;;;;1.50;99.90;;;;;;5095182;28;19912;-46
2022/01/06 06:09:28;;;;;;;;;;;1.60;99.90;;;;;;5078120;28;19908;-47
2022/01/06 06:11:53;;;;;;;;;;;1.50;99.90;;;;;;5096057;28;19919;-45
2022/01/06 06:14:19;;;;;;;;;;;1.50;99.90;;;;;;5078014;28;20011;-49
2022/01/06 06:16:45;;;;;;;;;;;1.50;99.90;;;;;;5078150;28;19908;-48
2022/01/06 06:19:10;;;;;;;;;;;1.50;99.90;;;;;;5096375;28;19918;-46
2022/01/06 06:21:35;;;;;;;;;;;1.60;99.90;;;;;;5095898;28;19916;-45
2022/01/06 06:24:01;;;;;;;;;;;1.50;99.90;;;;;;5096474;28;19908;-50
2022/01/06 06:26:27;;;;;;;;;;;1.50;99.90;;;;;;5096290;28;20259;-46
2022/01/06 06:28:52;;;;;;;;;;;1.60;99.90;;;;;;5095908;28;19931;-46
2022/01/06 06:31:18;;;;;;;;;;;1.60;99.90;;;;;;5096092;28;20381;-47
2022/01/06 06:33:43;;;;;;;;;;;1.50;99.90;;;;;;5095599;28;19919;-46
2022/01/06 06:36:09;;;;;;;;;;;1.60;99.90;;;;;;5096290;28;20395;-49
2022/01/06 06:38:34;;;;;;;;;;;1.60;99.90;;;;;;5095601;28;19908;-45
2022/01/06 06:41:00;;;;;;;;;;;1.50;99.90;;;;;;5095796;28;19920;-47
2022/01/06 06:43:25;;;;;;;;;;;1.70;99.90;;;;;;5095495;28;19958;-47
2022/01/06 06:45:51;;;;;;;;;;;1.70;99.90;;;;;;5095382;28;19950;-46
2022/01/06 06:48:16;;;;;;;;;;;1.70;99.90;;;;;;5095251;28;20340;-47
2022/01/06 06:50:42;;;;;;;;;;;1.70;99.90;;;;;;5095175;28;19987;-50
2022/01/06 06:53:07;;;;;;;;;;;1.70;99.90;;;;;;5095316;28;19935;-48
2022/01/06 06:55:33;;;;;;;;;;;1.70;99.90;;;;;;5095350;28;19912;-48
2022/01/06 06:57:59;;;;;;;;;;;1.80;99.90;;;;;;5095166;28;19941;-48
2022/01/06 07:00:25;;;;;;;;;;;1.70;99.90;;;;;;5095333;28;19912;-47
2022/01/06 07:02:50;;;;;;;;;;;1.70;99.90;;;;;;5095102;28;19912;-47
2022/01/06 07:05:16;;;;;;;;;;;1.80;99.90;;;;;;5095144;28;19977;-47
2022/01/06 07:07:42;;;;;;;;;;;1.70;99.90;;;;;;5077000;28;19950;-47
2022/01/06 07:10:07;;;;;;;;;;;1.60;99.90;;;;;;5094826;28;19909;-47
2022/01/06 07:12:36;;;;;;;;;;;1.40;99.90;;;;;;5095165;28;20308;-48
2022/01/06 07:15:02;;;;;;;;;;;1.60;99.90;;;;;;5095013;28;20367;-47
2022/01/06 07:17:28;;;;;;;;;;;1.50;99.90;;;;;;5094868;28;20302;-47
2022/01/06 07:19:53;;;;;;;;;;;1.60;99.90;;;;;;5094751;28;19923;-47
2022/01/06 07:22:19;;;;;;;;;;;1.50;99.90;;;;;;5094828;28;19912;-47
2022/01/06 07:24:44;;;;;;;;;;;1.30;99.90;;;;;;5094954;28;19908;-48
2022/01/06 07:27:10;;;;;;;;;;;1.30;99.90;;;;;;5094577;28;19908;-46
2022/01/06 07:29:35;;;;;;;;;;;1.30;99.90;;;;;;5094484;28;19997;-47
2022/01/06 07:32:01;;;;;;;;;;;1.30;99.90;;;;;;5095009;28;19963;-47
2022/01/06 07:34:26;;;;;;;;;;;1.40;99.90;;;;;;5095060;28;20008;-47
2022/01/06 07:36:52;;;;;;;;;;;1.30;99.90;;;;;;5094688;28;19951;-45
2022/01/06 07:39:18;;;;;;;;;;;1.30;99.90;;;;;;5094425;28;19912;-48
2022/01/06 07:41:43;;;;;;;;;;;1.30;99.90;;;;;;5094968;28;19916;-48
2022/01/06 07:44:09;;;;;;;;;;;1.40;99.90;;;;;;5094577;28;19909;-49
2022/01/06 07:46:35;;;;;;;;;;;1.50;99.90;;;;;;5094391;28;19965;-46
2022/01/06 07:49:00;;;;;;;;;;;1.50;99.90;;;;;;5094531;28;19912;-47
2022/01/06 07:51:28;;;;;;;;;;;1.50;99.90;;;;;;5093769;28;19912;-48
2022/01/06 07:53:54;;;;;;;;;;;1.40;99.90;;;;;;5094383;28;20023;-49
2022/01/06 07:56:20;;;;;;;;;;;1.60;99.90;;;;;;5093818;28;19969;-46
2022/01/06 07:58:46;;;;;;;;;;;1.60;99.90;;;;;;5093456;28;19912;-46
2022/01/06 08:01:12;;;;;;;;;;;1.70;99.90;;;;;;5085945;28;19916;-47
2022/01/06 08:03:37;;;;;;;;;;;1.60;99.90;;;;;;5093933;28;20434;-47
2022/01/06 08:06:03;;;;;;;;;;;1.60;99.90;;;;;;5093762;28;19916;-45
2022/01/06 08:08:29;;;;;;;;;;;1.60;99.90;;;;;;5094094;28;19915;-48
2022/01/06 08:10:54;;;;;;;;;;;1.60;99.90;;;;;;5093738;28;19912;-50
2022/01/06 08:13:20;;;;;;;;;;;1.60;99.90;;;;;;5094007;28;20246;-46
2022/01/06 08:15:45;;;;;;;;;;;1.60;99.90;;;;;;5093076;28;19912;-45
2022/01/06 08:18:11;;;;;;;;;;;1.60;99.90;;;;;;5093514;28;20006;-47
2022/01/06 08:20:38;;;;;;;;;;;1.50;99.90;;;;;;5093037;28;20357;-46
2022/01/06 08:23:04;;;;;;;;;;;1.40;99.90;;;;;;5091970;28;20246;-50
2022/01/06 08:25:30;;;;;;;;;;;1.50;99.90;;;;;;5094447;28;20030;-47
2022/01/06 08:27:55;;;;;;;;;;;1.60;99.90;;;;;;5093368;28;19904;-49
2022/01/06 08:30:21;;;;;;;;;;;1.60;99.90;;;;;;5097757;28;20377;-46
2022/01/06 08:32:46;;;;;;;;;;;1.80;99.90;;;;;;5097260;28;20022;-46
2022/01/06 08:35:11;;;;;;;;;;;1.90;99.90;;;;;;5098184;28;19915;-45
2022/01/06 08:37:37;;;;;;;;;;;2.00;99.90;;;;;;5079405;28;20350;-47
2022/01/06 08:40:03;;;;;;;;;;;2.00;99.90;;;;;;5091928;28;19916;-49
2022/01/06 08:42:28;;;;;;;;;;;1.90;99.90;;;;;;5077390;28;19915;-46
2022/01/06 08:44:54;;;;;;;;;;;1.80;99.90;;;;;;5086110;28;19908;-46
2022/01/06 08:47:19;;;;;;;;;;;1.80;99.90;;;;;;5097598;28;19905;-47
2022/01/06 08:49:45;;;;;;;;;;;1.70;99.90;;;;;;5097088;28;19957;-50
2022/01/06 08:52:10;;;;;;;;;;;1.60;99.90;;;;;;5097591;28;19908;-46
2022/01/06 08:54:36;;;;;;;;;;;1.70;99.90;;;;;;5097086;28;19908;-50
2022/01/06 08:57:02;;;;;;;;;;;2.00;99.90;;;;;;5096283;28;19947;-45
2022/01/06 08:59:27;;;;;;;;;;;2.20;99.90;;;;;;5097408;28;19908;-50
2022/01/06 09:01:53;;;;;;;;;;;2.60;99.90;;;;;;5097027;28;19919;-46
2022/01/06 09:04:20;;;;;;;;;;;2.50;99.90;;;;;;5079054;28;19916;-48
2022/01/06 09:06:52;;;;;;;;;;;2.60;99.90;;;;;;5096247;28;19908;-46
2022/01/06 09:09:18;;;;;;;;;;;2.60;99.90;;;;;;5095173;28;19916;-51
2022/01/06 09:11:44;;;;;;;;;;;2.60;99.90;;;;;;5097113;28;19963;-51
2022/01/06 09:14:10;;;;;;;;;;;2.40;99.90;;;;;;5097248;28;19958;-47
2022/01/06 09:16:36;;;;;;;;;;;2.30;99.90;;;;;;5096518;28;20053;-47
2022/01/06 09:19:02;;;;;;;;;;;2.40;99.90;;;;;;5097480;28;19959;-49
2022/01/06 09:21:27;;;;;;;;;;;2.50;99.90;;;;;;5096763;28;19957;-48
2022/01/06 09:23:54;;;;;;;;;;;2.60;99.90;;;;;;5097012;28;19925;-50
2022/01/06 09:26:20;;;;;;;;;;;2.60;99.90;;;;;;5096995;28;19998;-47
2022/01/06 09:28:46;;;;;;;;;;;2.60;99.90;;;;;;5078728;28;19947;-50
2022/01/06 09:31:11;;;;;;;;;;;2.80;99.90;;;;;;5096525;28;19916;-49
2022/01/06 09:33:37;;;;;;;;;;;2.80;99.90;;;;;;5096001;28;19977;-48
2022/01/06 09:36:02;;;;;;;;;;;3.00;99.90;;;;;;5095875;28;19912;-50
2022/01/06 09:38:28;;;;;;;;;;;3.30;99.90;;;;;;5095287;28;19994;-46
2022/01/06 09:40:54;;;;;;;;;;;3.40;99.90;;;;;;5077754;28;20014;-46
2022/01/06 09:43:25;;;;;;;;;;;3.40;99.90;;;;;;5096768;28;19965;-48
2022/01/06 09:45:51;;;;;;;;;;;3.40;99.90;;;;;;5096014;28;20392;-46
2022/01/06 09:48:19;;;;;;;;;;;3.10;99.90;;;;;;5096174;28;19908;-45
2022/01/06 09:50:45;;;;;;;;;;;3.10;99.90;;;;;;5095572;28;19912;-50
2022/01/06 09:53:11;;;;;;;;;;;3.00;99.90;;;;;;5096603;28;20311;-48
2022/01/06 09:55:37;;;;;;;;;;;3.10;99.90;;;;;;5070447;28;19916;-47
2022/01/06 09:58:03;;;;;;;;;;;3.20;99.90;;;;;;5082807;28;19912;-49
2022/01/06 10:00:29;;;;;;;;;;;3.20;99.90;;;;;;5092411;28;19942;-46
2022/01/06 10:02:59;;;;;;;;;;;3.10;99.90;;;;;;5092570;28;19923;-48
2022/01/06 10:05:25;;;;;;;;;;;3.00;99.90;;;;;;5095776;28;19912;-49
2022/01/06 10:07:53;;;;;;;;;;;3.00;99.90;;;;;;5095208;28;19913;-47
2022/01/06 10:10:23;;;;;;;;;;;3.00;99.90;;;;;;5095596;28;20351;-46
2022/01/06 10:12:54;;;;;;;;;;;3.20;99.90;;;;;;5096072;28;19908;-46
2022/01/06 10:15:21;;;;;;;;;;;3.20;99.90;;;;;;5094539;28;19912;-49
2022/01/06 10:17:47;;;;;;;;;;;3.30;99.90;;;;;;5095557;28;19916;-47
2022/01/06 10:20:14;;;;;;;;;;;3.30;99.90;;;;;;5095062;28;19957;-46
2022/01/06 10:22:46;;;;;;;;;;;3.30;99.90;;;;;;5094989;28;19927;-49
2022/01/06 10:25:13;;;;;;;;;;;3.40;99.90;;;;;;5095010;28;19920;-48
2022/01/06 10:27:39;;;;;;;;;;;3.70;99.90;;;;;;5095253;28;19920;-46
2022/01/06 10:30:05;;;;;;;;;;;3.50;99.90;;;;;;5095204;28;19920;-48
2022/01/06 10:32:31;;;;;;;;;;;3.50;99.90;;;;;;5095046;28;19965;-45
2022/01/06 10:35:02;;;;;;;;;;;3.60;99.90;;;;;;5094831;28;19912;-48
2022/01/06 10:37:30;;;;;;;;;;;3.80;99.90;;;;;;5094954;28;19912;-49
2022/01/06 10:40:00;;;;;;;;;;;4.30;99.90;;;;;;5095290;28;20279;-47
2022/01/06 10:42:30;;;;;;;;;;;4.30;99.90;;;;;;5095136;28;19916;-47
2022/01/06 10:44:58;;;;;;;;;;;3.90;99.90;;;;;;5073082;28;19919;-50
2022/01/06 10:47:28;;;;;;;;;;;4.00;99.90;;;;;;5092747;28;19923;-48
2022/01/06 10:49:54;;;;;;;;;;;4.00;99.90;;;;;;5076425;28;19923;-50
2022/01/06 10:52:26;;;;;;;;;;;3.70;99.90;;;;;;5093627;28;19912;-50
2022/01/06 10:54:51;;;;;;;;;;;3.50;99.90;;;;;;5094729;28;19912;-47
2022/01/06 10:57:17;;;;;;;;;;;3.70;99.90;;;;;;5094512;28;20367;-47
2022/01/06 10:59:44;;;;;;;;;;;3.70;99.90;;;;;;5076406;28;19923;-50
2022/01/06 11:02:23;;;;;;;;;;;3.50;99.90;;;;;;5086752;28;20378;-48
2022/01/06 11:04:48;;;;;;;;;;;3.30;99.90;;;;;;5094347;28;20014;-48
2022/01/06 11:07:14;;;;;;;;;;;3.20;99.90;;;;;;5095135;28;19956;-47
2022/01/06 11:09:40;;;;;;;;;;;3.00;99.90;;;;;;5094931;28;19912;-47
2022/01/06 11:14:49;;;;;;;;;;;3.00;99.90;;;;;;5090387;28;20006;-48
2022/01/06 11:17:15;;;;;;;;;;;2.40;99.90;;;;;;5094239;28;20305;-46
2022/01/06 11:19:40;;;;;;;;;;;2.40;99.90;;;;;;5093948;28;19926;-45
2022/01/06 11:22:07;;;;;;;;;;;2.00;99.90;;;;;;5093605;28;19923;-49
2022/01/06 11:24:34;;;;;;;;;;;1.90;99.90;;;;;;5094187;28;19908;-45
2022/01/06 11:27:01;;;;;;;;;;;2.20;99.90;;;;;;5093554;28;19912;-49
2022/01/06 11:29:29;;;;;;;;;;;2.40;99.90;;;;;;5093865;28;20251;-46
2022/01/06 11:31:54;;;;;;;;;;;2.50;99.90;;;;;;5094150;28;20328;-47
2022/01/06 11:34:20;;;;;;;;;;;2.70;99.90;;;;;;5093399;28;20011;-46
2022/01/06 11:36:49;;;;;;;;;;;2.80;99.90;;;;;;5093755;28;20002;-47
2022/01/06 11:39:28;;;;;;;;;;;2.90;99.90;;;;;;5093895;28;20423;-46
2022/01/06 11:41:55;;;;;;;;;;;2.70;99.90;;;;;;5093324;28;19920;-49
2022/01/06 11:44:20;;;;;;;;;;;2.80;99.90;;;;;;5094203;28;19920;-45
2022/01/06 11:46:47;;;;;;;;;;;3.00;99.90;;;;;;5094158;28;20321;-50
2022/01/06 11:49:13;;;;;;;;;;;3.10;99.90;;;;;;5093317;28;20007;-49
2022/01/06 11:51:39;;;;;;;;;;;3.10;99.90;;;;;;5094351;28;20345;-48
2022/01/06 11:54:16;;;;;;;;;;;3.00;99.90;;;;;;5093492;28;19951;-46
2022/01/06 11:56:50;;;;;;;;;;;2.90;99.90;;;;;;5093959;28;19908;-47
2022/01/06 11:59:15;;;;;;;;;;;2.90;99.90;;;;;;5093417;28;19916;-50
2022/01/06 12:01:45;;;;;;;;;;;2.90;99.90;;;;;;5093122;28;19999;-48
2022/01/06 12:04:15;;;;;;;;;;;3.00;99.90;;;;;;5090642;28;19912;-49
2022/01/06 12:06:41;;;;;;;;;;;2.90;99.90;;;;;;5093627;28;19912;-47
2022/01/06 12:09:17;;;;;;;;;;;3.00;99.90;;;;;;5084485;28;20295;-45
2022/01/06 12:11:43;;;;;;;;;;;2.90;99.90;;;;;;5093226;28;19912;-51
2022/01/06 12:14:08;;;;;;;;;;;2.90;99.90;;;;;;5093413;28;20002;-49
2022/01/06 12:16:35;;;;;;;;;;;2.90;99.90;;;;;;5093429;28;19922;-48
2022/01/06 12:19:11;;;;;;;;;;;2.80;99.90;;;;;;5075266;28;19908;-46
2022/01/06 12:21:37;;;;;;;;;;;2.90;99.90;;;;;;5089608;28;19950;-47
2022/01/06 12:24:04;;;;;;;;;;;2.80;99.90;;;;;;5093369;28;19912;-46
2022/01/06 12:26:30;;;;;;;;;;;2.80;99.90;;;;;;5093225;28;19912;-46
2022/01/06 12:28:55;;;;;;;;;;;3.00;99.90;;;;;;5093224;28;19912;-48
2022/01/06 12:31:25;;;;;;;;;;;3.30;99.90;;;;;;5093586;28;19928;-50
2022/01/06 12:33:51;;;;;;;;;;;3.30;99.90;;;;;;5092607;28;20281;-49
2022/01/06 12:36:18;;;;;;;;;;;3.10;99.90;;;;;;5093270;28;20534;-48
2022/01/06 12:38:43;;;;;;;;;;;2.90;99.90;;;;;;5092985;28;19951;-46
2022/01/06 12:41:10;;;;;;;;;;;3.00;99.90;;;;;;5092839;28;19955;-48
2022/01/06 12:43:37;;;;;;;;;;;3.10;99.90;;;;;;5093448;28;19918;-47
2022/01/06 12:46:05;;;;;;;;;;;3.40;99.90;;;;;;5092940;28;19923;-47
2022/01/06 12:48:57;;;;;;;;;;;3.60;99.90;;;;;;5093302;28;19916;-48
2022/01/06 12:51:23;;;;;;;;;;;3.20;99.90;;;;;;5072200;28;19912;-47
2022/01/06 12:53:50;;;;;;;;;;;3.30;99.90;;;;;;5073934;28;19944;-45
2022/01/06 12:56:23;;;;;;;;;;;3.50;99.90;;;;;;5092924;28;19958;-46
2022/01/06 12:58:49;;;;;;;;;;;3.60;99.90;;;;;;5092678;28;19953;-45
2022/01/06 13:01:14;;;;;;;;;;;3.70;99.90;;;;;;5092574;28;19916;-45
2022/01/06 13:03:41;;;;;;;;;;;3.80;99.90;;;;;;5091188;28;20003;-48
2022/01/06 13:06:08;;;;;;;;;;;3.90;99.90;;;;;;5073899;28;19917;-47
2022/01/06 13:08:43;;;;;;;;;;;3.60;99.90;;;;;;5074639;28;19920;-47
2022/01/06 13:11:08;;;;;;;;;;;3.60;99.90;;;;;;5078672;28;19909;-45
2022/01/06 13:13:44;;;;;;;;;;;3.60;99.90;;;;;;5086733;28;19916;-49
2022/01/06 13:16:17;;;;;;;;;;;3.40;99.90;;;;;;5095559;28;19923;-52
2022/01/06 13:19:03;;;;;;;;;;;3.40;99.90;;;;;;5096184;28;19912;-49
2022/01/06 13:21:30;;;;;;;;;;;3.60;99.90;;;;;;5075980;28;19921;-46
2022/01/06 13:23:56;;;;;;;;;;;3.70;99.90;;;;;;5091897;28;20003;-47
2022/01/06 13:26:21;;;;;;;;;;;3.80;99.90;;;;;;5096197;28;20431;-45
2022/01/06 13:29:00;;;;;;;;;;;3.80;99.90;;;;;;5096605;28;19908;-52
2022/01/06 13:31:26;;;;;;;;;;;4.10;99.90;;;;;;5095801;28;19920;-48
2022/01/06 13:33:53;;;;;;;;;;;4.20;99.90;;;;;;5096029;28;19919;-46
2022/01/06 13:36:25;;;;;;;;;;;4.00;99.90;;;;;;5096803;28;19993;-52
2022/01/06 13:38:51;;;;;;;;;;;3.70;99.90;;;;;;5095704;28;19916;-56
2022/01/06 13:41:24;;;;;;;;;;;3.80;99.90;;;;;;5095255;28;20317;-49
2022/01/06 13:43:55;;;;;;;;;;;3.80;99.90;;;;;;5096617;28;19915;-46
2022/01/06 13:46:23;;;;;;;;;;;3.80;99.90;;;;;;5095604;28;19958;-47
2022/01/06 13:51:04;;;;;;;;;;;3.80;99.90;;;;;;5096291;28;19981;-46
2022/01/06 13:51:35;;;;;;;;;;;3.80;99.90;;;;;;5095825;28;19915;-51
2022/01/06 13:54:07;;;;;;;;;;;3.80;99.90;;;;;;5093852;28;20265;-48
2022/01/06 13:56:34;;;;;;;;;;;3.70;99.90;;;;;;5094772;28;19939;-48
2022/01/06 13:59:07;;;;;;;;;;;3.70;99.90;;;;;;5095166;28;19919;-47
2022/01/06 14:01:32;;;;;;;;;;;3.80;99.90;;;;;;5094412;28;20362;-48
2022/01/06 14:03:58;;;;;;;;;;;3.60;99.90;;;;;;5091342;28;19937;-51
2022/01/06 14:06:24;;;;;;;;;;;3.80;99.90;;;;;;5095368;28;19916;-48
2022/01/06 14:08:49;;;;;;;;;;;3.90;99.90;;;;;;5082281;28;19999;-46
2022/01/06 14:11:16;;;;;;;;;;;3.90;99.90;;;;;;5076818;28;19912;-45
2022/01/06 14:13:43;;;;;;;;;;;3.90;99.90;;;;;;5087300;28;19913;-47
2022/01/06 14:16:09;;;;;;;;;;;3.80;99.90;;;;;;5091378;28;19908;-45
2022/01/06 14:18:34;;;;;;;;;;;3.60;99.90;;;;;;5078660;28;19912;-46
2022/01/06 14:21:00;;;;;;;;;;;3.50;99.90;;;;;;5077530;28;19917;-48
2022/01/06 14:23:28;;;;;;;;;;;3.30;99.90;;;;;;5076350;28;20374;-46
2022/01/06 14:25:54;;;;;;;;;;;3.20;99.90;;;;;;5078260;28;19912;-46
2022/01/06 14:28:20;;;;;;;;;;;3.10;99.90;;;;;;5095092;28;19908;-49
2022/01/06 14:30:45;;;;;;;;;;;3.20;99.90;;;;;;5064819;28;20370;-49
2022/01/06 14:33:11;;;;;;;;;;;3.20;99.90;;;;;;5085261;28;19920;-46
2022/01/06 14:35:37;;;;;;;;;;;3.10;99.90;;;;;;5085133;28;19958;-46
2022/01/06 14:38:03;;;;;;;;;;;3.10;99.90;;;;;;5095508;28;20003;-49
2022/01/06 14:40:29;;;;;;;;;;;3.10;99.90;;;;;;5091010;28;19980;-47